Time,TemperatureF,DewpointF,PressureIn,WindDirection,WindDirectionDegrees,WindSpeedMPH,WindSpeedGustMPH,Humidity,HourlyPrecipIn,Conditions,Clouds,dailyrainin,SoftwareType,DateUTC
2013-06-28 00:00:00,76.1,76.1,29.60,NNE,13,0.0,0.0,100,0.00,,---,0.01,VWS V14.01,2013-06-28 04:00:00,
2013-06-28 00:10:00,76.0,76.0,29.60,NNE,14,0.0,0.0,100,0.00,,---,0.00,VWS V14.01,2013-06-28 04:10:00,
2013-06-28 00:20:00,75.8,75.8,29.59,NNE,14,0.0,0.0,100,0.00,,---,0.00,VWS V14.01,2013-06-28 04:20:00,
2013-06-28 00:30:00,75.6,75.6,29.59,NNE,14,0.0,0.0,100,0.00,,---,0.00,VWS V14.01,2013-06-28 04:30:00,
2013-06-28 00:40:00,75.3,75.3,29.59,NNE,31,0.0,0.0,100,0.00,,---,0.00,VWS V14.01,2013-06-28 04:40:00,
2013-06-28 00:50:00,74.9,74.9,29.58,NE,47,0.0,0.0,100,0.00,,---,0.00,VWS V14.01,2013-06-28 04:50:00,
2013-06-28 01:00:00,74.6,74.6,29.58,NE,47,0.0,0.0,100,0.00,,---,0.00,VWS V14.01,2013-06-28 05:00:00,
2013-06-28 01:10:00,74.2,74.2,29.58,East,93,0.0,0.0,100,0.00,,---,0.00,VWS V14.01,2013-06-28 05:10:00,
2013-06-28 01:20:00,74.0,74.0,29.58,East,90,0.0,0.0,100,0.00,,---,0.00,VWS V14.01,2013-06-28 05:20:00,
2013-06-28 01:30:00,73.9,73.9,29.58,East,90,0.0,0.0,100,0.00,,---,0.00,VWS V14.01,2013-06-28 05:30:00,
2013-06-28 01:40:00,73.7,73.7,29.58,ESE,110,0.0,0.0,100,0.00,,---,0.00,VWS V14.01,2013-06-28 05:40:00,
2013-06-28 01:50:00,73.7,73.7,29.58,ESE,110,0.0,0.0,100,0.00,,---,0.00,VWS V14.01,2013-06-28 05:50:00,
2013-06-28 02:00:00,73.5,73.5,29.58,WSW,237,0.0,0.0,100,0.00,,---,0.00,VWS V14.01,2013-06-28 06:00:00,
2013-06-28 02:10:00,73.5,73.5,29.58,WSW,237,0.0,0.0,100,0.00,,---,0.00,VWS V14.01,2013-06-28 06:10:00,
2013-06-28 02:20:00,73.5,73.5,29.58,East,89,0.0,0.0,100,0.00,,---,0.00,VWS V14.01,2013-06-28 06:20:00,
2013-06-28 02:30:00,73.5,73.5,29.58,ENE,75,0.0,0.0,100,0.00,,---,0.00,VWS V14.01,2013-06-28 06:30:00,
2013-06-28 02:40:00,73.3,73.3,29.58,ENE,75,0.0,0.0,100,0.00,,---,0.00,VWS V14.01,2013-06-28 06:40:00,
2013-06-28 02:50:00,73.3,73.3,29.58,ENE,76,0.0,0.0,100,0.00,,---,0.00,VWS V14.01,2013-06-28 06:50:00,
2013-06-28 03:00:00,73.2,73.2,29.57,ENE,76,0.0,0.0,100,0.00,,---,0.00,VWS V14.01,2013-06-28 07:00:00,
2013-06-28 03:10:00,73.2,73.2,29.57,ENE,76,0.0,0.0,100,0.00,,---,0.00,VWS V14.01,2013-06-28 07:10:00,
2013-06-28 03:20:00,73.2,73.2,29.56,ENE,73,0.0,0.0,100,0.00,,---,0.00,VWS V14.01,2013-06-28 07:20:00,
2013-06-28 03:30:00,73.2,73.2,29.56,ENE,73,0.0,0.0,100,0.00,,---,0.00,VWS V14.01,2013-06-28 07:30:00,
2013-06-28 03:40:00,73.3,73.3,29.56,ENE,69,0.0,0.0,100,0.00,,---,0.00,VWS V14.01,2013-06-28 07:40:00,
2013-06-28 03:50:00,73.5,73.5,29.55,ENE,69,0.0,0.0,100,0.00,,---,0.00,VWS V14.01,2013-06-28 07:50:00,
2013-06-28 04:00:00,73.7,73.7,29.54,WSW,240,0.0,7.0,100,0.00,,---,0.00,VWS V14.01,2013-06-28 08:00:00,
2013-06-28 04:10:00,73.9,73.9,29.54,NE,41,0.0,0.0,100,0.00,,---,0.00,VWS V14.01,2013-06-28 08:10:00,
2013-06-28 04:20:00,73.9,73.9,29.54,WNW,287,0.0,0.0,100,0.00,,---,0.00,VWS V14.01,2013-06-28 08:20:00,
2013-06-28 04:30:00,73.7,73.7,29.53,WNW,287,0.0,0.0,100,0.00,,---,0.00,VWS V14.01,2013-06-28 08:30:00,
2013-06-28 04:40:00,73.7,73.7,29.53,WNW,287,0.0,0.0,100,0.00,,---,0.00,VWS V14.01,2013-06-28 08:40:00,
2013-06-28 04:50:00,73.7,73.7,29.53,West,264,0.0,0.0,100,0.00,,---,0.00,VWS V14.01,2013-06-28 08:50:00,
2013-06-28 05:00:00,73.5,73.5,29.53,SE,138,0.0,2.0,100,0.00,,---,0.00,VWS V14.01,2013-06-28 09:00:00,
2013-06-28 05:10:00,73.5,73.5,29.53,NNW,335,0.0,2.0,100,0.00,,---,0.00,VWS V14.01,2013-06-28 09:10:00,
2013-06-28 05:20:00,73.3,73.3,29.53,WSW,253,0.0,5.0,100,0.00,,---,0.00,VWS V14.01,2013-06-28 09:20:00,
2013-06-28 05:30:00,73.3,73.3,29.53,ESE,102,0.0,0.0,100,0.00,,---,0.00,VWS V14.01,2013-06-28 09:30:00,
2013-06-28 05:40:00,73.3,73.3,29.53,NW,312,0.0,1.0,100,0.00,,---,0.00,VWS V14.01,2013-06-28 09:40:00,
2013-06-28 05:50:00,73.3,73.3,29.53,NNE,21,0.0,0.0,100,0.00,,---,0.00,VWS V14.01,2013-06-28 09:50:00,
2013-06-28 06:00:00,73.2,73.2,29.53,WNW,288,0.0,3.0,100,0.00,,---,0.00,VWS V14.01,2013-06-28 10:00:00,
2013-06-28 06:10:00,73.2,73.2,29.53,South,182,0.0,0.0,100,0.00,,---,0.00,VWS V14.01,2013-06-28 10:10:00,
2013-06-28 06:20:00,73.3,73.3,29.54,NW,323,0.0,1.0,100,0.00,,---,0.00,VWS V14.01,2013-06-28 10:20:00,
2013-06-28 06:30:00,73.5,73.5,29.54,WNW,296,0.0,2.0,100,0.00,,---,0.00,VWS V14.01,2013-06-28 10:30:00,
2013-06-28 06:40:00,73.7,73.7,29.54,WNW,284,0.0,0.0,100,0.00,,---,0.00,VWS V14.01,2013-06-28 10:40:00,
2013-06-28 06:50:00,73.7,73.7,29.54,SW,217,0.0,0.0,100,0.00,,---,0.00,VWS V14.01,2013-06-28 10:50:00,
2013-06-28 07:00:00,73.7,73.7,29.54,West,280,0.0,0.0,100,0.00,,---,0.00,VWS V14.01,2013-06-28 11:00:00,
2013-06-28 07:10:00,73.9,73.9,29.54,North,0,0.0,0.0,100,0.00,,---,0.00,VWS V14.01,2013-06-28 11:10:00,
2013-06-28 07:20:00,74.0,74.0,29.54,SSE,168,0.0,2.0,100,0.00,,---,0.00,VWS V14.01,2013-06-28 11:20:00,
2013-06-28 07:30:00,74.2,74.2,29.54,NNE,20,0.0,0.0,100,0.00,,---,0.00,VWS V14.01,2013-06-28 11:30:00,
2013-06-28 07:40:00,74.4,74.4,29.54,North,350,0.0,0.0,100,0.00,,---,0.00,VWS V14.01,2013-06-28 11:40:00,
2013-06-28 07:50:00,74.6,74.6,29.54,North,350,0.0,0.0,100,0.00,,---,0.00,VWS V14.01,2013-06-28 11:50:00,
2013-06-28 08:00:00,74.9,74.9,29.54,North,350,0.0,0.0,100,0.00,,---,0.00,VWS V14.01,2013-06-28 12:00:00,
2013-06-28 08:10:00,75.3,75.3,29.54,North,350,0.0,0.0,100,0.00,,---,0.00,VWS V14.01,2013-06-28 12:10:00,
2013-06-28 08:20:00,75.6,75.6,29.55,WNW,282,0.0,0.0,100,0.00,,---,0.00,VWS V14.01,2013-06-28 12:20:00,
2013-06-28 08:30:00,75.8,75.8,29.54,NNW,333,0.0,0.0,100,0.00,,---,0.00,VWS V14.01,2013-06-28 12:30:00,
2013-06-28 08:40:00,76.1,76.1,29.54,West,263,0.0,0.0,100,0.00,,---,0.00,VWS V14.01,2013-06-28 12:40:00,
2013-06-28 08:50:00,76.5,76.5,29.54,ENE,61,0.0,1.0,100,0.00,,---,0.00,VWS V14.01,2013-06-28 12:50:00,
2013-06-28 09:00:00,77.2,77.2,29.55,ENE,66,0.0,0.0,100,0.00,,---,0.00,VWS V14.01,2013-06-28 13:00:00,
2013-06-28 09:10:00,77.7,77.7,29.55,SSW,212,0.0,0.0,100,0.00,,---,0.00,VWS V14.01,2013-06-28 13:10:00,
2013-06-28 09:20:00,78.5,78.2,29.54,NW,318,0.0,0.0,99,0.00,,---,0.00,VWS V14.01,2013-06-28 13:20:00,
2013-06-28 09:30:00,79.0,78.1,29.54,ENE,68,0.0,0.0,97,0.00,,---,0.00,VWS V14.01,2013-06-28 13:30:00,
2013-06-28 09:40:00,79.4,78.2,29.54,ENE,66,0.0,0.0,96,0.00,,---,0.00,VWS V14.01,2013-06-28 13:40:00,
2013-06-28 09:50:00,80.1,78.5,29.54,ENE,66,0.0,0.0,95,0.00,,---,0.00,VWS V14.01,2013-06-28 13:50:00,
2013-06-28 10:00:00,80.9,78.7,29.54,NNW,347,0.0,0.0,93,0.00,,---,0.00,VWS V14.01,2013-06-28 14:00:00,
2013-06-28 10:10:00,81.8,78.6,29.54,NNW,328,0.0,1.0,90,0.00,,---,0.00,VWS V14.01,2013-06-28 14:10:00,
2013-06-28 10:20:00,82.6,79.4,29.54,West,274,0.0,0.0,90,0.00,,---,0.00,VWS V14.01,2013-06-28 14:20:00,
2013-06-28 10:30:00,83.2,79.6,29.54,West,265,0.0,0.0,89,0.00,,---,0.00,VWS V14.01,2013-06-28 14:30:00,
2013-06-28 10:40:00,83.8,78.1,29.54,ENE,61,0.0,2.0,83,0.00,,---,0.00,VWS V14.01,2013-06-28 14:40:00,
2013-06-28 10:50:00,84.7,79.3,29.53,NW,306,0.0,0.0,84,0.00,,---,0.00,VWS V14.01,2013-06-28 14:50:00,
2013-06-28 11:00:00,85.7,79.2,29.54,NNW,337,0.0,0.0,81,0.00,,---,0.00,VWS V14.01,2013-06-28 15:00:00,
2013-06-28 11:10:00,86.1,79.2,29.54,West,267,0.0,1.0,80,0.00,,---,0.00,VWS V14.01,2013-06-28 15:10:00,
2013-06-28 11:20:00,86.3,79.0,29.54,WNW,295,0.0,8.0,79,0.00,,---,0.00,VWS V14.01,2013-06-28 15:20:00,
2013-06-28 11:30:00,87.6,79.5,29.54,WNW,287,0.0,0.0,77,0.00,,---,0.00,VWS V14.01,2013-06-28 15:30:00,
2013-06-28 11:40:00,88.4,78.2,29.54,South,175,0.0,0.0,72,0.00,,---,0.00,VWS V14.01,2013-06-28 15:40:00,
2013-06-28 11:50:00,88.6,78.4,29.53,NW,323,0.0,3.0,72,0.00,,---,0.00,VWS V14.01,2013-06-28 15:50:00,
2013-06-28 12:00:00,89.3,78.7,29.53,NW,312,0.0,0.0,71,0.00,,---,0.00,VWS V14.01,2013-06-28 16:00:00,
2013-06-28 12:10:00,89.9,79.2,29.53,ESE,106,0.0,1.0,71,0.00,,---,0.00,VWS V14.01,2013-06-28 16:10:00,
2013-06-28 12:20:00,90.3,78.3,29.53,ESE,103,0.0,0.0,68,0.00,,---,0.00,VWS V14.01,2013-06-28 16:20:00,
2013-06-28 12:30:00,90.7,79.1,29.52,West,263,0.0,3.0,69,0.00,,---,0.00,VWS V14.01,2013-06-28 16:30:00,
2013-06-28 12:40:00,91.0,79.4,29.52,NE,52,0.0,0.0,69,0.00,,---,0.00,VWS V14.01,2013-06-28 16:40:00,
2013-06-28 12:50:00,91.4,79.4,29.52,NE,51,0.0,0.0,68,0.00,,---,0.00,VWS V14.01,2013-06-28 16:50:00,
2013-06-28 13:00:00,91.6,79.6,29.52,North,0,0.0,2.0,68,0.00,,---,0.00,VWS V14.01,2013-06-28 17:00:00,
2013-06-28 13:10:00,91.0,79.4,29.52,ENE,65,0.0,2.0,69,0.00,,---,0.00,VWS V14.01,2013-06-28 17:10:00,
2013-06-28 13:20:00,90.7,80.0,29.52,ENE,73,0.0,3.0,71,0.00,,---,0.00,VWS V14.01,2013-06-28 17:20:00,
2013-06-28 13:30:00,91.2,80.9,29.51,WNW,288,0.0,0.0,72,0.00,,---,0.00,VWS V14.01,2013-06-28 17:30:00,
2013-06-28 13:40:00,91.4,79.8,29.51,NW,323,0.0,1.0,69,0.00,,---,0.00,VWS V14.01,2013-06-28 17:40:00,
2013-06-28 13:50:00,91.6,80.4,29.50,NW,322,0.0,5.0,70,0.00,,---,0.00,VWS V14.01,2013-06-28 17:50:00,
2013-06-28 14:00:00,92.1,79.6,29.50,NNE,13,0.0,0.0,67,0.00,,---,0.00,VWS V14.01,2013-06-28 18:00:00,
2013-06-28 14:10:00,91.6,78.6,29.50,SW,236,0.0,1.0,66,0.00,,---,0.00,VWS V14.01,2013-06-28 18:10:00,
2013-06-28 14:20:00,91.6,78.6,29.50,East,97,0.0,0.0,66,0.00,,---,0.00,VWS V14.01,2013-06-28 18:20:00,
2013-06-28 14:30:00,91.6,79.1,29.50,WNW,298,0.0,1.0,67,0.00,,---,0.00,VWS V14.01,2013-06-28 18:30:00,
2013-06-28 14:40:00,90.7,79.1,29.50,NNW,343,0.0,1.0,69,0.00,,---,0.00,VWS V14.01,2013-06-28 18:40:00,
2013-06-28 14:50:00,90.7,79.1,29.49,North,10,0.0,0.0,69,0.00,,---,0.00,VWS V14.01,2013-06-28 18:50:00,
2013-06-28 15:00:00,91.2,78.7,29.49,East,80,0.0,1.0,67,0.00,,---,0.00,VWS V14.01,2013-06-28 19:00:00,
2013-06-28 15:10:00,91.6,80.4,29.49,North,8,0.0,0.0,70,0.00,,---,0.00,VWS V14.01,2013-06-28 19:10:00,
2013-06-28 15:20:00,92.1,79.6,29.48,NNW,340,0.0,4.0,67,0.00,,---,0.00,VWS V14.01,2013-06-28 19:20:00,
2013-06-28 15:30:00,92.5,79.9,29.47,ENE,68,0.0,1.0,67,0.00,,---,0.00,VWS V14.01,2013-06-28 19:30:00,
2013-06-28 15:40:00,91.6,78.2,29.47,East,85,0.0,3.0,65,0.00,,---,0.00,VWS V14.01,2013-06-28 19:40:00,
2013-06-28 15:50:00,92.1,78.2,29.46,SSW,212,0.0,1.0,64,0.00,,---,0.00,VWS V14.01,2013-06-28 19:50:00,
2013-06-28 16:00:00,92.1,79.6,29.45,SE,140,0.0,1.0,67,0.00,,---,0.00,VWS V14.01,2013-06-28 20:00:00,
2013-06-28 16:10:00,92.1,79.6,29.45,ESE,116,0.0,2.0,67,0.00,,---,0.00,VWS V14.01,2013-06-28 20:10:00,
2013-06-28 16:20:00,91.6,79.1,29.45,South,184,0.0,1.0,67,0.00,,---,0.00,VWS V14.01,2013-06-28 20:20:00,
2013-06-28 16:30:00,90.7,79.1,29.44,ESE,109,0.0,3.0,69,0.00,,---,0.00,VWS V14.01,2013-06-28 20:30:00,
2013-06-28 16:40:00,90.7,79.6,29.44,NNW,343,0.0,0.0,70,0.00,,---,0.00,VWS V14.01,2013-06-28 20:40:00,
2013-06-28 16:50:00,90.7,79.1,29.43,NW,304,0.0,6.0,69,0.00,,---,0.00,VWS V14.01,2013-06-28 20:50:00,
2013-06-28 17:00:00,89.9,78.4,29.42,SE,141,0.0,6.0,69,0.00,,---,0.00,VWS V14.01,2013-06-28 21:00:00,
2013-06-28 17:10:00,89.5,78.4,29.42,ESE,116,0.0,5.0,70,0.00,,---,0.00,VWS V14.01,2013-06-28 21:10:00,
2013-06-28 17:20:00,88.8,78.6,29.42,ENE,62,0.0,3.0,72,0.00,,---,0.00,VWS V14.01,2013-06-28 21:20:00,
2013-06-28 17:30:00,88.8,78.6,29.42,NE,42,0.0,2.0,72,0.00,,---,0.00,VWS V14.01,2013-06-28 21:30:00,
2013-06-28 17:40:00,88.2,78.4,29.42,NNW,337,0.0,0.0,73,0.00,,---,0.00,VWS V14.01,2013-06-28 21:40:00,
2013-06-28 17:50:00,87.8,78.9,29.44,NNE,23,0.0,0.0,75,0.00,,---,0.00,VWS V14.01,2013-06-28 21:50:00,
2013-06-28 18:00:00,87.2,78.3,29.45,SSE,155,0.0,2.0,75,0.00,,---,0.00,VWS V14.01,2013-06-28 22:00:00,
2013-06-28 18:10:00,86.5,77.2,29.45,WNW,295,0.0,1.0,74,0.00,,---,0.00,VWS V14.01,2013-06-28 22:10:00,
2013-06-28 18:20:00,86.3,77.4,29.45,NW,313,0.0,0.0,75,0.00,,---,0.00,VWS V14.01,2013-06-28 22:20:00,
2013-06-28 18:30:00,86.1,77.2,29.46,NW,313,0.0,0.0,75,0.00,,---,0.00,VWS V14.01,2013-06-28 22:30:00,
2013-06-28 18:40:00,85.3,76.9,29.46,WNW,289,0.0,3.0,76,0.00,,---,0.00,VWS V14.01,2013-06-28 22:40:00,
2013-06-28 18:50:00,81.6,73.7,29.49,West,270,0.0,5.0,77,0.00,,---,0.00,VWS V14.01,2013-06-28 22:50:00,
2013-06-28 19:00:00,78.1,75.6,29.51,WNW,289,0.0,8.0,92,0.09,,---,0.09,VWS V14.01,2013-06-28 23:00:00,
2013-06-28 19:10:00,74.6,74.6,29.51,SW,215,0.0,4.0,100,0.22,,---,0.22,VWS V14.01,2013-06-28 23:10:00,
2013-06-28 19:20:00,72.8,72.8,29.50,West,281,0.0,8.0,100,0.25,,---,0.25,VWS V14.01,2013-06-28 23:20:00,
2013-06-28 19:30:00,72.0,72.0,29.47,South,175,0.0,2.0,100,0.30,,---,0.30,VWS V14.01,2013-06-28 23:30:00,
2013-06-28 19:40:00,71.6,71.6,29.47,SSW,202,0.0,0.0,100,0.30,,---,0.30,VWS V14.01,2013-06-28 23:40:00,
2013-06-28 19:50:00,71.5,71.5,29.45,South,178,0.0,0.0,100,0.30,,---,0.30,VWS V14.01,2013-06-28 23:50:00,
2013-06-28 20:00:00,71.5,71.5,29.45,South,178,0.0,0.0,100,0.30,,---,0.30,VWS V14.01,2013-06-29 00:00:00,
2013-06-28 20:10:00,71.3,71.3,29.45,South,178,0.0,0.0,100,0.21,,---,0.30,VWS V14.01,2013-06-29 00:10:00,
2013-06-28 20:20:00,71.5,71.5,29.47,ENE,61,0.0,0.0,100,0.08,,---,0.30,VWS V14.01,2013-06-29 00:20:00,
2013-06-28 20:30:00,71.5,71.5,29.46,NNE,28,0.0,0.0,100,0.05,,---,0.30,VWS V14.01,2013-06-29 00:30:00,
2013-06-28 20:40:00,71.8,71.8,29.46,NNE,28,0.0,0.0,100,0.00,,---,0.30,VWS V14.01,2013-06-29 00:40:00,
2013-06-28 20:50:00,72.0,72.0,29.46,NNE,28,0.0,0.0,100,0.00,,---,0.30,VWS V14.01,2013-06-29 00:50:00,
2013-06-28 21:00:00,72.1,72.1,29.47,NNE,28,0.0,0.0,100,0.00,,---,0.30,VWS V14.01,2013-06-29 01:00:00,
2013-06-28 21:10:00,72.1,72.1,29.47,NNE,28,0.0,0.0,100,0.00,,---,0.30,VWS V14.01,2013-06-29 01:10:00,
2013-06-28 21:20:00,72.0,72.0,29.47,NNE,28,0.0,0.0,100,0.00,,---,0.30,VWS V14.01,2013-06-29 01:20:00,
2013-06-28 21:30:00,72.0,72.0,29.48,NNE,28,0.0,0.0,100,0.00,,---,0.30,VWS V14.01,2013-06-29 01:30:00,
2013-06-28 21:40:00,72.0,72.0,29.48,NNE,28,0.0,0.0,100,0.00,,---,0.30,VWS V14.01,2013-06-29 01:40:00,
2013-06-28 21:50:00,72.0,72.0,29.48,NNE,28,0.0,0.0,100,0.00,,---,0.30,VWS V14.01,2013-06-29 01:50:00,
2013-06-28 22:00:00,72.0,72.0,29.49,NNE,28,0.0,0.0,100,0.00,,---,0.30,VWS V14.01,2013-06-29 02:00:00,
2013-06-28 22:10:00,72.0,72.0,29.49,NNE,28,0.0,0.0,100,0.00,,---,0.30,VWS V14.01,2013-06-29 02:10:00,
2013-06-28 22:20:00,72.0,72.0,29.49,NNE,28,0.0,0.0,100,0.00,,---,0.30,VWS V14.01,2013-06-29 02:20:00,
2013-06-28 22:30:00,71.6,71.6,29.50,ENE,68,0.0,0.0,100,0.00,,---,0.30,VWS V14.01,2013-06-29 02:30:00,
2013-06-28 22:40:00,71.3,71.3,29.50,ENE,65,0.0,1.0,100,0.00,,---,0.30,VWS V14.01,2013-06-29 02:40:00,
2013-06-28 22:50:00,71.3,71.3,29.50,ENE,65,0.0,0.0,100,0.00,,---,0.30,VWS V14.01,2013-06-29 02:50:00,
2013-06-28 23:00:00,71.3,71.3,29.50,ENE,65,0.0,0.0,100,0.00,,---,0.30,VWS V14.01,2013-06-29 03:00:00,
2013-06-28 23:10:00,71.3,71.3,29.50,ENE,65,0.0,0.0,100,0.00,,---,0.30,VWS V14.01,2013-06-29 03:10:00,
2013-06-28 23:20:00,71.1,71.1,29.49,ENE,65,0.0,0.0,100,0.05,,---,0.35,VWS V14.01,2013-06-29 03:20:00,
2013-06-28 23:30:00,71.3,71.3,29.50,ENE,65,0.0,0.0,100,0.13,,---,0.43,VWS V14.01,2013-06-29 03:30:00,
2013-06-28 23:40:00,71.3,71.3,29.50,North,11,0.0,0.0,100,0.41,,---,0.71,VWS V14.01,2013-06-29 03:40:00,
2013-06-28 23:50:00,71.1,71.1,29.52,West,265,0.0,3.0,100,0.48,,---,0.78,VWS V14.01,2013-06-29 03:50:00,